sensor_id;sensor_type;location;lat;lon;timestamp;P1;durP1;ratioP1;P2;durP2;ratioP2
69260;SDS011;56378;52.404;20.816;2022-10-15T00:01:34;35.30;;;18.02;;
69260;SDS011;56378;52.404;20.816;2022-10-15T00:04:01;35.13;;;18.25;;
69260;SDS011;56378;52.404;20.816;2022-10-15T00:06:27;34.10;;;17.88;;
69260;SDS011;56378;52.404;20.816;2022-10-15T00:08:52;35.90;;;17.77;;
69260;SDS011;56378;52.404;20.816;2022-10-15T00:11:19;36.47;;;18.67;;
69260;SDS011;56378;52.404;20.816;2022-10-15T00:13:47;36.10;;;18.08;;
69260;SDS011;56378;52.404;20.816;2022-10-15T00:16:15;33.07;;;18.10;;
69260;SDS011;56378;52.404;20.816;2022-10-15T00:18:42;35.38;;;18.05;;
69260;SDS011;56378;52.404;20.816;2022-10-15T00:21:09;30.85;;;16.65;;
69260;SDS011;56378;52.404;20.816;2022-10-15T00:23:36;35.83;;;17.83;;
69260;SDS011;56378;52.404;20.816;2022-10-15T00:28:34;35.45;;;17.10;;
69260;SDS011;56378;52.404;20.816;2022-10-15T00:31:04;30.77;;;16.75;;
69260;SDS011;56378;52.404;20.816;2022-10-15T00:33:31;34.67;;;17.27;;
69260;SDS011;56378;52.404;20.816;2022-10-15T00:36:09;30.85;;;16.85;;
69260;SDS011;56378;52.404;20.816;2022-10-15T00:38:37;34.03;;;17.17;;
69260;SDS011;56378;52.404;20.816;2022-10-15T00:41:03;32.28;;;16.98;;
69260;SDS011;56378;52.404;20.816;2022-10-15T00:46:17;35.20;;;17.90;;
69260;SDS011;56378;52.404;20.816;2022-10-15T00:48:58;33.13;;;16.63;;
69260;SDS011;56378;52.404;20.816;2022-10-15T00:51:34;31.77;;;16.98;;
69260;SDS011;56378;52.404;20.816;2022-10-15T00:54:05;36.95;;;17.67;;
69260;SDS011;56378;52.404;20.816;2022-10-15T00:56:31;33.70;;;17.20;;
69260;SDS011;56378;52.404;20.816;2022-10-15T00:58:57;36.25;;;18.48;;
69260;SDS011;56378;52.404;20.816;2022-10-15T01:01:23;40.05;;;19.35;;
69260;SDS011;56378;52.404;20.816;2022-10-15T01:03:50;36.10;;;17.95;;
69260;SDS011;56378;52.404;20.816;2022-10-15T01:06:17;35.83;;;18.20;;
69260;SDS011;56378;52.404;20.816;2022-10-15T01:08:43;37.90;;;18.83;;
69260;SDS011;56378;52.404;20.816;2022-10-15T01:11:12;38.78;;;18.63;;
69260;SDS011;56378;52.404;20.816;2022-10-15T01:16:44;38.07;;;19.00;;
69260;SDS011;56378;52.404;20.816;2022-10-15T01:22:06;42.95;;;19.75;;
69260;SDS011;56378;52.404;20.816;2022-10-15T01:27:33;52.45;;;22.08;;
69260;SDS011;56378;52.404;20.816;2022-10-15T01:32:43;54.30;;;23.52;;
69260;SDS011;56378;52.404;20.816;2022-10-15T01:35:21;52.20;;;23.50;;
69260;SDS011;56378;52.404;20.816;2022-10-15T01:37:52;61.03;;;25.48;;
69260;SDS011;56378;52.404;20.816;2022-10-15T01:40:35;54.08;;;24.17;;
69260;SDS011;56378;52.404;20.816;2022-10-15T01:43:19;53.43;;;23.27;;
69260;SDS011;56378;52.404;20.816;2022-10-15T01:45:52;53.10;;;23.38;;
69260;SDS011;56378;52.404;20.816;2022-10-15T01:48:22;58.90;;;24.70;;
69260;SDS011;56378;52.404;20.816;2022-10-15T01:50:52;53.45;;;24.40;;
69260;SDS011;56378;52.404;20.816;2022-10-15T01:53:21;49.88;;;23.75;;
69260;SDS011;56378;52.404;20.816;2022-10-15T01:55:51;48.10;;;23.00;;
69260;SDS011;56378;52.404;20.816;2022-10-15T01:58:19;50.75;;;23.42;;
69260;SDS011;56378;52.404;20.816;2022-10-15T02:00:47;52.70;;;22.92;;
69260;SDS011;56378;52.404;20.816;2022-10-15T02:03:13;48.22;;;22.90;;
69260;SDS011;56378;52.404;20.816;2022-10-15T02:05:41;44.97;;;21.60;;
69260;SDS011;56378;52.404;20.816;2022-10-15T02:11:18;48.53;;;22.15;;
69260;SDS011;56378;52.404;20.816;2022-10-15T02:18:56;44.57;;;21.97;;
69260;SDS011;56378;52.404;20.816;2022-10-15T02:21:52;43.47;;;21.20;;
69260;SDS011;56378;52.404;20.816;2022-10-15T02:24:27;47.30;;;21.27;;
69260;SDS011;56378;52.404;20.816;2022-10-15T02:26:59;42.50;;;20.98;;
69260;SDS011;56378;52.404;20.816;2022-10-15T02:29:27;43.00;;;20.48;;
69260;SDS011;56378;52.404;20.816;2022-10-15T02:31:57;41.97;;;21.70;;
69260;SDS011;56378;52.404;20.816;2022-10-15T02:34:26;47.03;;;22.02;;
69260;SDS011;56378;52.404;20.816;2022-10-15T02:36:54;45.17;;;21.92;;
69260;SDS011;56378;52.404;20.816;2022-10-15T02:39:22;40.47;;;20.73;;
69260;SDS011;56378;52.404;20.816;2022-10-15T02:41:53;47.67;;;21.27;;
69260;SDS011;56378;52.404;20.816;2022-10-15T02:44:19;45.13;;;22.57;;
69260;SDS011;56378;52.404;20.816;2022-10-15T02:46:45;44.22;;;21.58;;
69260;SDS011;56378;52.404;20.816;2022-10-15T02:49:11;46.97;;;21.73;;
69260;SDS011;56378;52.404;20.816;2022-10-15T02:51:37;45.20;;;21.13;;
69260;SDS011;56378;52.404;20.816;2022-10-15T02:54:03;42.78;;;21.77;;
69260;SDS011;56378;52.404;20.816;2022-10-15T02:56:31;50.25;;;22.80;;
69260;SDS011;56378;52.404;20.816;2022-10-15T02:58:57;40.85;;;21.73;;
69260;SDS011;56378;52.404;20.816;2022-10-15T03:01:22;47.17;;;22.30;;
69260;SDS011;56378;52.404;20.816;2022-10-15T03:03:48;49.28;;;23.52;;
69260;SDS011;56378;52.404;20.816;2022-10-15T03:06:14;45.07;;;22.00;;
69260;SDS011;56378;52.404;20.816;2022-10-15T03:08:40;49.13;;;22.60;;
69260;SDS011;56378;52.404;20.816;2022-10-15T03:11:07;45.17;;;22.73;;
69260;SDS011;56378;52.404;20.816;2022-10-15T03:13:36;44.37;;;22.20;;
69260;SDS011;56378;52.404;20.816;2022-10-15T03:16:04;45.85;;;22.00;;
69260;SDS011;56378;52.404;20.816;2022-10-15T03:18:31;48.10;;;22.42;;
69260;SDS011;56378;52.404;20.816;2022-10-15T03:20:57;45.63;;;23.23;;
69260;SDS011;56378;52.404;20.816;2022-10-15T03:23:24;47.17;;;22.80;;
69260;SDS011;56378;52.404;20.816;2022-10-15T03:25:50;45.63;;;22.73;;
69260;SDS011;56378;52.404;20.816;2022-10-15T03:28:17;45.20;;;22.52;;
69260;SDS011;56378;52.404;20.816;2022-10-15T03:30:43;47.03;;;23.23;;
69260;SDS011;56378;52.404;20.816;2022-10-15T03:33:09;49.07;;;23.13;;
69260;SDS011;56378;52.404;20.816;2022-10-15T03:35:34;48.27;;;23.27;;
69260;SDS011;56378;52.404;20.816;2022-10-15T03:38:00;47.17;;;24.00;;
69260;SDS011;56378;52.404;20.816;2022-10-15T03:40:26;53.22;;;24.80;;
69260;SDS011;56378;52.404;20.816;2022-10-15T03:42:52;56.60;;;25.27;;
69260;SDS011;56378;52.404;20.816;2022-10-15T03:45:18;50.78;;;24.20;;
69260;SDS011;56378;52.404;20.816;2022-10-15T03:47:44;52.42;;;25.23;;
69260;SDS011;56378;52.404;20.816;2022-10-15T03:50:10;57.03;;;27.17;;
69260;SDS011;56378;52.404;20.816;2022-10-15T03:52:36;55.33;;;25.77;;
69260;SDS011;56378;52.404;20.816;2022-10-15T03:55:03;56.65;;;25.85;;
69260;SDS011;56378;52.404;20.816;2022-10-15T03:57:30;55.10;;;26.58;;
69260;SDS011;56378;52.404;20.816;2022-10-15T03:59:55;60.13;;;28.33;;
69260;SDS011;56378;52.404;20.816;2022-10-15T04:02:24;59.35;;;27.23;;
69260;SDS011;56378;52.404;20.816;2022-10-15T04:04:53;57.15;;;25.35;;
69260;SDS011;56378;52.404;20.816;2022-10-15T04:07:19;64.25;;;27.20;;
69260;SDS011;56378;52.404;20.816;2022-10-15T04:09:45;56.45;;;27.02;;
69260;SDS011;56378;52.404;20.816;2022-10-15T04:12:12;61.30;;;26.03;;
69260;SDS011;56378;52.404;20.816;2022-10-15T04:14:38;63.10;;;28.40;;
69260;SDS011;56378;52.404;20.816;2022-10-15T04:17:04;66.28;;;26.95;;
69260;SDS011;56378;52.404;20.816;2022-10-15T04:19:30;63.83;;;27.13;;
69260;SDS011;56378;52.404;20.816;2022-10-15T04:21:56;63.40;;;26.70;;
69260;SDS011;56378;52.404;20.816;2022-10-15T04:24:22;62.83;;;26.52;;
69260;SDS011;56378;52.404;20.816;2022-10-15T04:26:48;58.53;;;28.27;;
69260;SDS011;56378;52.404;20.816;2022-10-15T04:29:14;58.03;;;26.75;;
69260;SDS011;56378;52.404;20.816;2022-10-15T04:31:39;54.65;;;26.00;;
69260;SDS011;56378;52.404;20.816;2022-10-15T04:34:06;51.40;;;24.57;;
69260;SDS011;56378;52.404;20.816;2022-10-15T04:36:32;54.13;;;25.52;;
69260;SDS011;56378;52.404;20.816;2022-10-15T04:38:58;55.78;;;25.65;;
69260;SDS011;56378;52.404;20.816;2022-10-15T04:41:24;52.28;;;25.90;;
69260;SDS011;56378;52.404;20.816;2022-10-15T04:43:50;53.30;;;25.33;;
69260;SDS011;56378;52.404;20.816;2022-10-15T04:46:16;53.95;;;25.27;;
69260;SDS011;56378;52.404;20.816;2022-10-15T04:48:42;52.33;;;25.45;;
69260;SDS011;56378;52.404;20.816;2022-10-15T04:51:11;56.77;;;24.90;;
69260;SDS011;56378;52.404;20.816;2022-10-15T04:53:47;53.50;;;26.38;;
69260;SDS011;56378;52.404;20.816;2022-10-15T04:56:14;63.65;;;27.48;;
69260;SDS011;56378;52.404;20.816;2022-10-15T04:58:42;59.40;;;26.37;;
69260;SDS011;56378;52.404;20.816;2022-10-15T05:01:11;56.75;;;25.15;;
69260;SDS011;56378;52.404;20.816;2022-10-15T05:03:39;54.40;;;25.65;;
69260;SDS011;56378;52.404;20.816;2022-10-15T05:06:10;56.30;;;26.08;;
69260;SDS011;56378;52.404;20.816;2022-10-15T05:08:41;56.22;;;26.15;;
69260;SDS011;56378;52.404;20.816;2022-10-15T05:11:14;70.90;;;27.50;;
69260;SDS011;56378;52.404;20.816;2022-10-15T05:13:42;59.83;;;27.85;;
69260;SDS011;56378;52.404;20.816;2022-10-15T05:16:15;58.60;;;26.98;;
69260;SDS011;56378;52.404;20.816;2022-10-15T05:18:44;63.58;;;28.45;;
69260;SDS011;56378;52.404;20.816;2022-10-15T05:21:11;60.95;;;28.15;;
69260;SDS011;56378;52.404;20.816;2022-10-15T05:23:38;58.60;;;26.80;;
69260;SDS011;56378;52.404;20.816;2022-10-15T05:26:05;56.83;;;26.48;;
69260;SDS011;56378;52.404;20.816;2022-10-15T05:28:33;52.00;;;25.95;;
69260;SDS011;56378;52.404;20.816;2022-10-15T05:31:05;54.55;;;25.85;;
69260;SDS011;56378;52.404;20.816;2022-10-15T05:33:32;59.80;;;26.53;;
69260;SDS011;56378;52.404;20.816;2022-10-15T05:38:33;52.85;;;26.90;;
69260;SDS011;56378;52.404;20.816;2022-10-15T05:40:59;58.60;;;26.43;;
69260;SDS011;56378;52.404;20.816;2022-10-15T05:43:24;56.63;;;26.58;;
69260;SDS011;56378;52.404;20.816;2022-10-15T05:45:54;56.45;;;26.77;;
69260;SDS011;56378;52.404;20.816;2022-10-15T05:48:20;58.33;;;27.40;;
69260;SDS011;56378;52.404;20.816;2022-10-15T05:50:45;52.78;;;25.65;;
69260;SDS011;56378;52.404;20.816;2022-10-15T05:53:11;56.75;;;27.90;;
69260;SDS011;56378;52.404;20.816;2022-10-15T05:55:37;50.50;;;25.03;;
69260;SDS011;56378;52.404;20.816;2022-10-15T05:58:06;51.30;;;24.25;;
69260;SDS011;56378;52.404;20.816;2022-10-15T06:00:33;46.05;;;23.38;;
69260;SDS011;56378;52.404;20.816;2022-10-15T06:02:59;44.80;;;23.40;;
69260;SDS011;56378;52.404;20.816;2022-10-15T06:05:25;49.47;;;23.83;;
69260;SDS011;56378;52.404;20.816;2022-10-15T06:07:51;48.05;;;23.75;;
69260;SDS011;56378;52.404;20.816;2022-10-15T06:10:17;47.70;;;23.93;;
69260;SDS011;56378;52.404;20.816;2022-10-15T06:12:47;46.10;;;22.65;;
69260;SDS011;56378;52.404;20.816;2022-10-15T06:15:17;47.20;;;23.83;;
69260;SDS011;56378;52.404;20.816;2022-10-15T06:17:43;46.47;;;22.58;;
69260;SDS011;56378;52.404;20.816;2022-10-15T06:20:09;51.03;;;23.83;;
69260;SDS011;56378;52.404;20.816;2022-10-15T06:22:37;43.63;;;23.05;;
69260;SDS011;56378;52.404;20.816;2022-10-15T06:25:03;46.00;;;22.25;;
69260;SDS011;56378;52.404;20.816;2022-10-15T06:27:29;44.50;;;22.35;;
69260;SDS011;56378;52.404;20.816;2022-10-15T06:29:54;44.50;;;22.67;;
69260;SDS011;56378;52.404;20.816;2022-10-15T06:32:20;46.72;;;22.25;;
69260;SDS011;56378;52.404;20.816;2022-10-15T06:34:46;45.20;;;22.10;;
69260;SDS011;56378;52.404;20.816;2022-10-15T06:37:11;46.77;;;23.10;;
69260;SDS011;56378;52.404;20.816;2022-10-15T06:39:37;44.67;;;23.23;;
69260;SDS011;56378;52.404;20.816;2022-10-15T06:42:04;44.35;;;21.08;;
69260;SDS011;56378;52.404;20.816;2022-10-15T06:44:30;43.77;;;21.67;;
69260;SDS011;56378;52.404;20.816;2022-10-15T06:46:55;42.80;;;22.00;;
69260;SDS011;56378;52.404;20.816;2022-10-15T06:49:22;43.88;;;22.50;;
69260;SDS011;56378;52.404;20.816;2022-10-15T06:51:48;40.20;;;19.60;;
69260;SDS011;56378;52.404;20.816;2022-10-15T06:54:14;42.72;;;21.25;;
69260;SDS011;56378;52.404;20.816;2022-10-15T06:56:40;47.20;;;22.67;;
69260;SDS011;56378;52.404;20.816;2022-10-15T06:59:05;40.67;;;20.65;;
69260;SDS011;56378;52.404;20.816;2022-10-15T07:01:31;51.23;;;21.30;;
69260;SDS011;56378;52.404;20.816;2022-10-15T07:03:57;39.20;;;19.90;;
69260;SDS011;56378;52.404;20.816;2022-10-15T07:06:22;38.97;;;18.83;;
69260;SDS011;56378;52.404;20.816;2022-10-15T07:11:37;47.03;;;21.25;;
69260;SDS011;56378;52.404;20.816;2022-10-15T07:14:23;38.83;;;18.67;;
69260;SDS011;56378;52.404;20.816;2022-10-15T07:16:58;40.40;;;19.57;;
69260;SDS011;56378;52.404;20.816;2022-10-15T07:29:37;34.03;;;18.02;;
69260;SDS011;56378;52.404;20.816;2022-10-15T07:32:21;32.83;;;18.23;;
69260;SDS011;56378;52.404;20.816;2022-10-15T07:34:49;36.38;;;18.42;;
69260;SDS011;56378;52.404;20.816;2022-10-15T07:37:33;36.47;;;18.52;;
69260;SDS011;56378;52.404;20.816;2022-10-15T07:40:11;33.22;;;17.70;;
69260;SDS011;56378;52.404;20.816;2022-10-15T07:42:53;35.95;;;18.27;;
69260;SDS011;56378;52.404;20.816;2022-10-15T07:55:26;33.33;;;17.77;;
69260;SDS011;56378;52.404;20.816;2022-10-15T07:57:56;33.38;;;16.80;;
69260;SDS011;56378;52.404;20.816;2022-10-15T08:00:31;35.80;;;19.03;;
69260;SDS011;56378;52.404;20.816;2022-10-15T08:06:19;30.70;;;16.25;;
69260;SDS011;56378;52.404;20.816;2022-10-15T08:08:49;37.38;;;18.80;;
69260;SDS011;56378;52.404;20.816;2022-10-15T08:11:21;32.60;;;17.77;;
69260;SDS011;56378;52.404;20.816;2022-10-15T08:13:59;31.50;;;16.07;;
69260;SDS011;56378;52.404;20.816;2022-10-15T08:19:04;33.55;;;15.75;;
69260;SDS011;56378;52.404;20.816;2022-10-15T08:21:29;31.67;;;16.70;;
69260;SDS011;56378;52.404;20.816;2022-10-15T08:23:58;38.27;;;17.60;;
69260;SDS011;56378;52.404;20.816;2022-10-15T08:26:24;34.08;;;17.92;;
69260;SDS011;56378;52.404;20.816;2022-10-15T08:28:50;31.90;;;17.15;;
69260;SDS011;56378;52.404;20.816;2022-10-15T08:31:16;35.93;;;18.00;;
69260;SDS011;56378;52.404;20.816;2022-10-15T08:33:48;31.13;;;16.27;;
69260;SDS011;56378;52.404;20.816;2022-10-15T08:36:20;32.25;;;16.08;;
69260;SDS011;56378;52.404;20.816;2022-10-15T08:38:48;32.30;;;17.27;;
69260;SDS011;56378;52.404;20.816;2022-10-15T08:41:19;30.20;;;15.25;;
69260;SDS011;56378;52.404;20.816;2022-10-15T08:43:55;30.83;;;15.33;;
69260;SDS011;56378;52.404;20.816;2022-10-15T08:46:45;31.88;;;16.50;;
69260;SDS011;56378;52.404;20.816;2022-10-15T08:54:57;31.45;;;16.80;;
69260;SDS011;56378;52.404;20.816;2022-10-15T09:00:51;34.22;;;16.98;;
69260;SDS011;56378;52.404;20.816;2022-10-15T09:14:35;36.28;;;17.48;;
69260;SDS011;56378;52.404;20.816;2022-10-15T09:17:08;31.98;;;16.60;;
69260;SDS011;56378;52.404;20.816;2022-10-15T09:19:46;29.00;;;16.52;;
69260;SDS011;56378;52.404;20.816;2022-10-15T09:22:17;29.77;;;16.25;;
69260;SDS011;56378;52.404;20.816;2022-10-15T09:24:45;29.00;;;16.67;;
69260;SDS011;56378;52.404;20.816;2022-10-15T09:27:14;30.40;;;16.05;;
69260;SDS011;56378;52.404;20.816;2022-10-15T09:43:35;30.02;;;16.40;;
69260;SDS011;56378;52.404;20.816;2022-10-15T09:46:03;29.88;;;16.48;;
69260;SDS011;56378;52.404;20.816;2022-10-15T09:51:45;28.13;;;15.25;;
69260;SDS011;56378;52.404;20.816;2022-10-15T09:57:08;31.52;;;16.63;;
69260;SDS011;56378;52.404;20.816;2022-10-15T09:59:35;34.90;;;18.35;;
69260;SDS011;56378;52.404;20.816;2022-10-15T10:02:02;30.13;;;15.33;;
69260;SDS011;56378;52.404;20.816;2022-10-15T10:04:44;32.83;;;17.48;;
69260;SDS011;56378;52.404;20.816;2022-10-15T10:07:24;30.27;;;16.70;;
69260;SDS011;56378;52.404;20.816;2022-10-15T10:09:54;31.23;;;15.67;;
69260;SDS011;56378;52.404;20.816;2022-10-15T10:12:45;31.02;;;15.52;;
69260;SDS011;56378;52.404;20.816;2022-10-15T10:17:52;33.17;;;15.93;;
69260;SDS011;56378;52.404;20.816;2022-10-15T10:20:19;31.63;;;15.95;;
69260;SDS011;56378;52.404;20.816;2022-10-15T10:27:48;30.67;;;16.75;;
69260;SDS011;56378;52.404;20.816;2022-10-15T10:30:13;28.30;;;15.57;;
69260;SDS011;56378;52.404;20.816;2022-10-15T10:32:39;32.80;;;17.10;;
69260;SDS011;56378;52.404;20.816;2022-10-15T10:35:13;30.73;;;15.80;;
69260;SDS011;56378;52.404;20.816;2022-10-15T10:37:46;25.35;;;14.93;;
69260;SDS011;56378;52.404;20.816;2022-10-15T10:40:23;28.97;;;15.10;;
69260;SDS011;56378;52.404;20.816;2022-10-15T10:43:17;29.38;;;15.50;;
69260;SDS011;56378;52.404;20.816;2022-10-15T10:46:00;31.85;;;20.02;;
69260;SDS011;56378;52.404;20.816;2022-10-15T10:54:00;30.17;;;16.13;;
69260;SDS011;56378;52.404;20.816;2022-10-15T10:56:36;30.40;;;15.80;;
69260;SDS011;56378;52.404;20.816;2022-10-15T10:59:11;31.60;;;16.70;;
69260;SDS011;56378;52.404;20.816;2022-10-15T11:01:56;35.17;;;22.17;;
69260;SDS011;56378;52.404;20.816;2022-10-15T11:04:24;31.73;;;16.90;;
69260;SDS011;56378;52.404;20.816;2022-10-15T11:20:32;25.58;;;14.25;;
69260;SDS011;56378;52.404;20.816;2022-10-15T11:28:48;23.95;;;13.63;;
69260;SDS011;56378;52.404;20.816;2022-10-15T11:32:01;25.63;;;13.90;;
69260;SDS011;56378;52.404;20.816;2022-10-15T11:56:25;25.55;;;14.20;;
69260;SDS011;56378;52.404;20.816;2022-10-15T11:59:00;21.80;;;13.27;;
69260;SDS011;56378;52.404;20.816;2022-10-15T12:01:36;26.50;;;14.05;;
69260;SDS011;56378;52.404;20.816;2022-10-15T12:04:11;24.88;;;13.57;;
69260;SDS011;56378;52.404;20.816;2022-10-15T12:06:42;25.77;;;14.40;;
69260;SDS011;56378;52.404;20.816;2022-10-15T12:09:24;25.17;;;13.65;;
69260;SDS011;56378;52.404;20.816;2022-10-15T12:15:21;28.52;;;14.68;;
69260;SDS011;56378;52.404;20.816;2022-10-15T12:17:45;23.92;;;13.73;;
69260;SDS011;56378;52.404;20.816;2022-10-15T12:20:33;25.38;;;13.55;;
69260;SDS011;56378;52.404;20.816;2022-10-15T12:22:59;25.77;;;13.43;;
69260;SDS011;56378;52.404;20.816;2022-10-15T12:28:01;30.35;;;13.43;;
69260;SDS011;56378;52.404;20.816;2022-10-15T12:30:36;23.25;;;13.32;;
69260;SDS011;56378;52.404;20.816;2022-10-15T12:33:19;27.10;;;14.20;;
69260;SDS011;56378;52.404;20.816;2022-10-15T12:35:54;28.23;;;14.88;;
69260;SDS011;56378;52.404;20.816;2022-10-15T12:38:34;25.67;;;13.70;;
69260;SDS011;56378;52.404;20.816;2022-10-15T12:41:09;25.67;;;14.07;;
69260;SDS011;56378;52.404;20.816;2022-10-15T12:43:41;26.17;;;14.43;;
69260;SDS011;56378;52.404;20.816;2022-10-15T12:46:09;23.77;;;14.13;;
69260;SDS011;56378;52.404;20.816;2022-10-15T12:48:38;25.65;;;14.98;;
69260;SDS011;56378;52.404;20.816;2022-10-15T12:53:44;24.63;;;14.40;;
69260;SDS011;56378;52.404;20.816;2022-10-15T13:16:47;27.20;;;15.10;;
69260;SDS011;56378;52.404;20.816;2022-10-15T13:19:18;24.55;;;14.30;;
69260;SDS011;56378;52.404;20.816;2022-10-15T13:22:21;27.08;;;14.45;;
69260;SDS011;56378;52.404;20.816;2022-10-15T13:24:49;25.00;;;14.77;;
69260;SDS011;56378;52.404;20.816;2022-10-15T13:29:56;26.92;;;15.10;;
69260;SDS011;56378;52.404;20.816;2022-10-15T13:32:26;25.27;;;14.75;;
69260;SDS011;56378;52.404;20.816;2022-10-15T13:34:59;27.20;;;14.15;;
69260;SDS011;56378;52.404;20.816;2022-10-15T13:37:31;24.65;;;14.98;;
69260;SDS011;56378;52.404;20.816;2022-10-15T13:39:58;25.53;;;14.67;;
69260;SDS011;56378;52.404;20.816;2022-10-15T13:42:27;24.27;;;14.50;;
69260;SDS011;56378;52.404;20.816;2022-10-15T13:47:26;26.63;;;15.02;;
69260;SDS011;56378;52.404;20.816;2022-10-15T13:55:19;28.48;;;14.70;;
69260;SDS011;56378;52.404;20.816;2022-10-15T13:57:47;27.77;;;15.32;;
69260;SDS011;56378;52.404;20.816;2022-10-15T14:00:36;27.42;;;15.70;;
69260;SDS011;56378;52.404;20.816;2022-10-15T14:05:45;27.15;;;15.20;;
69260;SDS011;56378;52.404;20.816;2022-10-15T14:08:55;25.77;;;15.27;;
69260;SDS011;56378;52.404;20.816;2022-10-15T14:11:01;25.80;;;14.65;;
69260;SDS011;56378;52.404;20.816;2022-10-15T14:13:27;25.23;;;15.05;;
69260;SDS011;56378;52.404;20.816;2022-10-15T14:18:32;27.15;;;15.63;;
69260;SDS011;56378;52.404;20.816;2022-10-15T14:21:00;26.80;;;15.65;;
69260;SDS011;56378;52.404;20.816;2022-10-15T14:23:26;28.55;;;16.45;;
69260;SDS011;56378;52.404;20.816;2022-10-15T14:25:53;26.47;;;16.33;;
69260;SDS011;56378;52.404;20.816;2022-10-15T14:28:21;26.60;;;16.40;;
69260;SDS011;56378;52.404;20.816;2022-10-15T14:30:48;27.83;;;16.77;;
69260;SDS011;56378;52.404;20.816;2022-10-15T14:38:50;24.40;;;14.43;;
69260;SDS011;56378;52.404;20.816;2022-10-15T14:41:20;25.42;;;15.57;;
69260;SDS011;56378;52.404;20.816;2022-10-15T14:43:47;27.10;;;15.57;;
69260;SDS011;56378;52.404;20.816;2022-10-15T14:46:40;25.35;;;14.13;;
69260;SDS011;56378;52.404;20.816;2022-10-15T14:51:51;28.20;;;16.50;;
69260;SDS011;56378;52.404;20.816;2022-10-15T14:54:20;25.80;;;15.18;;
69260;SDS011;56378;52.404;20.816;2022-10-15T14:56:50;26.30;;;16.17;;
69260;SDS011;56378;52.404;20.816;2022-10-15T14:59:17;25.70;;;15.30;;
69260;SDS011;56378;52.404;20.816;2022-10-15T15:01:54;27.83;;;15.63;;
69260;SDS011;56378;52.404;20.816;2022-10-15T15:04:31;26.67;;;15.40;;
69260;SDS011;56378;52.404;20.816;2022-10-15T15:06:58;26.65;;;16.65;;
69260;SDS011;56378;52.404;20.816;2022-10-15T15:09:23;30.55;;;18.02;;
69260;SDS011;56378;52.404;20.816;2022-10-15T15:11:49;28.50;;;18.33;;
69260;SDS011;56378;52.404;20.816;2022-10-15T15:14:24;28.65;;;17.50;;
69260;SDS011;56378;52.404;20.816;2022-10-15T15:16:50;34.03;;;20.33;;
69260;SDS011;56378;52.404;20.816;2022-10-15T15:19:16;34.73;;;21.23;;
69260;SDS011;56378;52.404;20.816;2022-10-15T15:21:42;35.30;;;20.92;;
69260;SDS011;56378;52.404;20.816;2022-10-15T15:24:09;34.50;;;20.67;;
69260;SDS011;56378;52.404;20.816;2022-10-15T15:26:35;28.50;;;17.80;;
69260;SDS011;56378;52.404;20.816;2022-10-15T15:29:01;29.87;;;17.70;;
69260;SDS011;56378;52.404;20.816;2022-10-15T15:31:27;30.23;;;18.05;;
69260;SDS011;56378;52.404;20.816;2022-10-15T15:33:56;29.93;;;16.60;;
69260;SDS011;56378;52.404;20.816;2022-10-15T15:36:22;31.95;;;17.30;;
69260;SDS011;56378;52.404;20.816;2022-10-15T15:38:48;31.93;;;16.57;;
69260;SDS011;56378;52.404;20.816;2022-10-15T15:41:14;29.93;;;16.37;;
69260;SDS011;56378;52.404;20.816;2022-10-15T15:43:42;32.42;;;19.13;;
69260;SDS011;56378;52.404;20.816;2022-10-15T15:46:08;30.23;;;17.25;;
69260;SDS011;56378;52.404;20.816;2022-10-15T15:48:34;37.13;;;20.17;;
69260;SDS011;56378;52.404;20.816;2022-10-15T15:51:01;34.08;;;20.13;;
69260;SDS011;56378;52.404;20.816;2022-10-15T15:53:29;30.50;;;19.33;;
69260;SDS011;56378;52.404;20.816;2022-10-15T15:55:54;34.63;;;21.63;;
69260;SDS011;56378;52.404;20.816;2022-10-15T15:58:20;42.10;;;22.90;;
69260;SDS011;56378;52.404;20.816;2022-10-15T16:00:46;32.63;;;19.63;;
69260;SDS011;56378;52.404;20.816;2022-10-15T16:03:12;39.17;;;22.10;;
69260;SDS011;56378;52.404;20.816;2022-10-15T16:05:38;43.75;;;24.85;;
69260;SDS011;56378;52.404;20.816;2022-10-15T16:08:05;43.77;;;25.60;;
69260;SDS011;56378;52.404;20.816;2022-10-15T16:10:32;44.15;;;24.05;;
69260;SDS011;56378;52.404;20.816;2022-10-15T16:12:59;44.80;;;25.88;;
69260;SDS011;56378;52.404;20.816;2022-10-15T16:15:25;42.80;;;25.38;;
69260;SDS011;56378;52.404;20.816;2022-10-15T16:17:51;49.05;;;29.10;;
69260;SDS011;56378;52.404;20.816;2022-10-15T16:20:18;46.50;;;27.23;;
69260;SDS011;56378;52.404;20.816;2022-10-15T16:22:47;52.00;;;28.20;;
69260;SDS011;56378;52.404;20.816;2022-10-15T16:25:14;49.00;;;27.58;;
69260;SDS011;56378;52.404;20.816;2022-10-15T16:27:40;40.40;;;23.77;;
69260;SDS011;56378;52.404;20.816;2022-10-15T16:30:09;56.63;;;31.60;;
69260;SDS011;56378;52.404;20.816;2022-10-15T16:32:35;72.85;;;41.90;;
69260;SDS011;56378;52.404;20.816;2022-10-15T16:35:01;66.90;;;38.17;;
69260;SDS011;56378;52.404;20.816;2022-10-15T16:37:26;68.43;;;37.67;;
69260;SDS011;56378;52.404;20.816;2022-10-15T16:39:52;63.20;;;36.73;;
69260;SDS011;56378;52.404;20.816;2022-10-15T16:42:18;55.33;;;30.57;;
69260;SDS011;56378;52.404;20.816;2022-10-15T16:44:44;53.37;;;27.90;;
69260;SDS011;56378;52.404;20.816;2022-10-15T16:47:09;44.87;;;26.50;;
69260;SDS011;56378;52.404;20.816;2022-10-15T16:49:35;42.63;;;25.33;;
69260;SDS011;56378;52.404;20.816;2022-10-15T16:52:01;41.53;;;24.52;;
69260;SDS011;56378;52.404;20.816;2022-10-15T16:54:26;35.80;;;23.90;;
69260;SDS011;56378;52.404;20.816;2022-10-15T16:56:52;49.88;;;28.77;;
69260;SDS011;56378;52.404;20.816;2022-10-15T16:59:18;41.47;;;23.95;;
69260;SDS011;56378;52.404;20.816;2022-10-15T17:01:44;38.03;;;22.10;;
69260;SDS011;56378;52.404;20.816;2022-10-15T17:04:10;36.63;;;21.20;;
69260;SDS011;56378;52.404;20.816;2022-10-15T17:06:36;36.63;;;21.25;;
69260;SDS011;56378;52.404;20.816;2022-10-15T17:09:02;34.70;;;19.77;;
69260;SDS011;56378;52.404;20.816;2022-10-15T17:13:56;41.53;;;22.25;;
69260;SDS011;56378;52.404;20.816;2022-10-15T17:16:28;34.38;;;19.67;;
69260;SDS011;56378;52.404;20.816;2022-10-15T17:18:56;33.05;;;19.95;;
69260;SDS011;56378;52.404;20.816;2022-10-15T17:21:23;33.73;;;20.10;;
69260;SDS011;56378;52.404;20.816;2022-10-15T17:23:51;34.28;;;20.45;;
69260;SDS011;56378;52.404;20.816;2022-10-15T17:26:20;41.25;;;21.05;;
69260;SDS011;56378;52.404;20.816;2022-10-15T17:28:47;32.70;;;20.27;;
69260;SDS011;56378;52.404;20.816;2022-10-15T17:31:15;36.88;;;20.23;;
69260;SDS011;56378;52.404;20.816;2022-10-15T17:33:43;35.60;;;20.20;;
69260;SDS011;56378;52.404;20.816;2022-10-15T17:36:16;36.40;;;20.05;;
69260;SDS011;56378;52.404;20.816;2022-10-15T17:38:43;41.88;;;21.67;;
69260;SDS011;56378;52.404;20.816;2022-10-15T17:41:12;34.72;;;19.70;;
69260;SDS011;56378;52.404;20.816;2022-10-15T17:43:42;33.90;;;19.92;;
69260;SDS011;56378;52.404;20.816;2022-10-15T17:46:13;36.20;;;20.50;;
69260;SDS011;56378;52.404;20.816;2022-10-15T17:48:40;39.20;;;20.25;;